Tawau, Malaysia
Current Conditions -  °F | °C
As of 12:00 AM on Thursday 27 Nov 2014 (Local Time) from WBKW Reporting Station
Broken Clouds Broken Clouds  
Wind Chill: 77°   Ceiling: 30000
Heat Index: 78°   Visibility: 6mi
Dew Point: 73°   Wind: 1mph
Humidity: 89%   Direction: 360°N
Pressure: 29.74"   Gusts: NA
Location:  4.26°N, 117.88°E
Report Text: WBKW 261600Z 36001KT 9999 FEW017 SCT140 BKN300 25/23 Q1007
Loading
Personal Weather Stations






























Interactive Weather Map New forecast layout! Learn more

10-Day Weather Forecast

Advertisements
Track Severe Weather on mobile